Time;durP1;ratioP1;P1;durP2;ratioP2;P2;SDS_P1;SDS_P2;PMS_P1;PMS_P2;Temp;Humidity;BMP_temperature;BMP_pressure;BME280_temperature;BME280_humidity;BME280_pressure;Samples;Min_cycle;Max_cycle;Signal;HPM_P1;HPM_P2
2022/04/08 00:02:25;;;;;;;12.98;7.25;;;;;;;9.12;63.66;97747.97;4990552;28;20042;-64
2022/04/08 00:04:52;;;;;;;17.02;7.68;;;;;;;9.08;63.46;97740.75;4992877;28;20498;-63
2022/04/08 00:07:19;;;;;;;10.90;6.47;;;;;;;9.01;63.16;97747.00;4990886;28;20133;-64
2022/04/08 00:09:46;;;;;;;12.90;6.50;;;;;;;8.94;63.28;97746.81;4992691;28;20129;-64
2022/04/08 00:12:14;;;;;;;20.25;9.57;;;;;;;8.92;63.06;97749.16;4990416;28;20055;-63
2022/04/08 00:14:41;;;;;;;16.85;7.65;;;;;;;8.91;62.94;97755.06;4993386;28;20523;-63
2022/04/08 00:17:08;;;;;;;12.35;6.72;;;;;;;8.88;63.10;97772.44;4991254;28;20075;-63
2022/04/08 00:19:36;;;;;;;10.13;6.47;;;;;;;8.88;62.46;97756.59;4992567;28;20478;-63
2022/04/08 00:22:06;;;;;;;11.80;6.57;;;;;;;8.86;63.22;97747.84;4990396;28;20129;-63
2022/04/08 00:24:33;;;;;;;9.63;6.25;;;;;;;8.85;62.47;97749.03;4993904;28;20050;-66
2022/04/08 00:27:00;;;;;;;11.45;6.32;;;;;;;8.82;62.46;97755.28;4990775;28;20464;-63
2022/04/08 00:29:27;;;;;;;13.95;6.88;;;;;;;8.78;62.20;97746.13;4992121;28;20081;-63
2022/04/08 00:31:57;;;;;;;14.75;6.97;;;;;;;8.74;61.93;97742.44;4991612;28;20133;-64
2022/04/08 00:34:25;;;;;;;10.68;6.07;;;;;;;8.70;62.14;97757.38;4993267;28;20497;-63
2022/04/08 00:36:55;;;;;;;10.50;5.38;;;;;;;8.67;62.28;97750.63;4992720;28;20043;-63
2022/04/08 00:39:22;;;;;;;17.73;7.10;;;;;;;8.64;61.87;97740.25;4991662;28;20564;-63
2022/04/08 00:41:52;;;;;;;11.48;6.10;;;;;;;8.63;62.00;97746.97;4992039;28;20097;-63
2022/04/08 00:44:20;;;;;;;15.07;6.50;;;;;;;8.59;62.06;97748.06;4992357;28;20142;-63
2022/04/08 00:46:47;;;;;;;10.18;5.78;;;;;;;8.54;61.56;97751.94;4992238;28;20047;-63
2022/04/08 00:49:14;;;;;;;9.25;6.22;;;;;;;8.53;61.54;97746.75;4989963;28;20132;-63
2022/04/08 00:51:41;;;;;;;8.00;5.35;;;;;;;8.52;61.64;97748.72;4991972;28;20129;-64
2022/04/08 00:54:09;;;;;;;11.32;6.05;;;;;;;8.48;61.58;97744.25;4989702;28;20078;-63
2022/04/08 00:56:37;;;;;;;9.77;5.80;;;;;;;8.46;61.85;97755.69;4991089;28;20050;-63
2022/04/08 00:59:04;;;;;;;9.68;5.57;;;;;;;8.43;61.87;97748.09;4989623;28;20430;-63
2022/04/08 01:01:31;;;;;;;10.13;6.35;;;;;;;8.43;61.61;97731.50;4991394;28;20064;-62
2022/04/08 01:03:58;;;;;;;11.23;5.80;;;;;;;8.40;61.87;97742.47;4989710;28;20062;-63
2022/04/08 01:06:25;;;;;;;9.50;5.68;;;;;;;8.39;61.64;97736.16;4990400;28;20138;-62
2022/04/08 01:08:53;;;;;;;11.43;5.43;;;;;;;8.37;61.75;97741.25;4989379;28;20054;-63
2022/04/08 01:11:21;;;;;;;12.23;5.57;;;;;;;8.40;61.51;97740.53;4991206;28;20468;-63
2022/04/08 01:13:50;;;;;;;8.52;5.55;;;;;;;8.39;61.43;97733.38;4988799;28;20050;-64
2022/04/08 01:16:19;;;;;;;7.87;4.80;;;;;;;8.36;61.69;97733.31;4988402;28;20383;-64
2022/04/08 01:18:46;;;;;;;10.98;5.57;;;;;;;8.36;61.54;97736.88;4989855;28;20070;-63
2022/04/08 01:21:13;;;;;;;12.93;5.60;;;;;;;8.34;61.24;97735.63;4990953;28;20137;-63
2022/04/08 01:23:46;;;;;;;12.35;4.38;;;;;;;8.34;61.05;97730.88;4990905;28;20050;-64
2022/04/08 01:26:14;;;;;;;9.13;5.63;;;;;;;8.38;60.70;97736.53;4992241;28;20054;-63
2022/04/08 01:28:43;;;;;;;9.30;5.00;;;;;;;8.36;61.07;97728.56;4991722;28;20054;-61
2022/04/08 01:31:10;;;;;;;7.25;4.43;;;;;;;8.36;60.82;97734.13;4992097;28;20054;-61
2022/04/08 01:33:37;;;;;;;9.70;5.05;;;;;;;8.36;60.58;97738.84;4991054;28;20046;-62
2022/04/08 01:36:04;;;;;;;12.75;5.18;;;;;;;8.35;60.30;97737.25;4988929;28;20046;-62
2022/04/08 01:38:31;;;;;;;10.45;5.82;;;;;;;8.33;60.50;97742.34;4990627;28;20497;-62
2022/04/08 01:40:58;;;;;;;9.23;4.95;;;;;;;8.34;60.33;97736.44;4989267;28;20144;-62
2022/04/08 01:43:24;;;;;;;9.85;5.43;;;;;;;8.31;60.44;97737.16;4991118;28;20089;-61
2022/04/08 01:45:51;;;;;;;10.23;5.75;;;;;;;8.31;60.24;97737.16;4989012;28;20134;-61
2022/04/08 01:48:19;;;;;;;13.18;5.38;;;;;;;8.32;59.90;97749.84;4990815;28;20073;-62
2022/04/08 01:50:46;;;;;;;8.93;4.50;;;;;;;8.32;59.79;97738.75;4988980;28;20176;-63
2022/04/08 01:53:15;;;;;;;9.65;4.57;;;;;;;8.30;59.94;97734.75;4990893;28;20058;-62
2022/04/08 01:55:42;;;;;;;12.87;4.70;;;;;;;8.27;60.14;97735.47;4988478;28;20430;-64
2022/04/08 01:58:10;;;;;;;9.63;5.20;;;;;;;8.30;60.01;97743.06;4990658;28;20125;-61
2022/04/08 02:00:38;;;;;;;9.55;4.53;;;;;;;8.28;59.66;97746.19;4988739;28;20105;-60
2022/04/08 02:03:05;;;;;;;8.85;4.68;;;;;;;8.26;59.44;97750.50;4990090;28;20112;-60
2022/04/08 02:05:32;;;;;;;13.55;4.57;;;;;;;8.24;60.13;97737.00;4989535;28;20129;-61
2022/04/08 02:07:59;;;;;;;7.15;4.07;;;;;;;8.21;59.76;97748.78;5006584;28;20157;-61
2022/04/08 02:10:26;;;;;;;8.48;4.53;;;;;;;8.21;59.24;97743.22;4994852;28;20054;-61
2022/04/08 02:12:53;;;;;;;8.68;4.30;;;;;;;8.20;59.54;97751.91;4994821;28;20141;-61
2022/04/08 02:15:31;;;;;;;11.43;4.07;;;;;;;8.14;59.21;97753.34;4994879;28;20058;-61
2022/04/08 02:17:58;;;;;;;9.68;4.65;;;;;;;8.20;59.22;97754.69;4995787;28;20050;-61
2022/04/08 02:20:25;;;;;;;11.20;4.25;;;;;;;8.18;59.15;97748.69;4994868;28;20553;-61
2022/04/08 02:22:52;;;;;;;12.00;3.72;;;;;;;8.17;58.96;97750.63;4989769;28;20136;-61
2022/04/08 02:25:19;;;;;;;11.27;4.45;;;;;;;8.14;59.16;97747.81;4996501;28;20054;-61
2022/04/08 02:27:46;;;;;;;9.70;4.65;;;;;;;8.14;58.87;97747.81;4992396;28;20046;-61
2022/04/08 02:30:13;;;;;;;7.28;4.00;;;;;;;8.14;58.97;97737.50;4993028;28;20288;-61
2022/04/08 02:32:40;;;;;;;13.60;4.38;;;;;;;8.12;59.25;97753.72;4992322;28;20177;-61
2022/04/08 02:35:08;;;;;;;10.85;4.30;;;;;;;8.14;58.78;97743.06;4994220;28;20472;-61
2022/04/08 02:37:35;;;;;;;6.53;4.40;;;;;;;8.17;58.66;97747.09;4992366;28;20050;-61
2022/04/08 02:40:02;;;;;;;7.82;3.97;;;;;;;8.18;58.45;97760.56;4993685;28;20046;-62
2022/04/08 02:42:32;;;;;;;7.07;4.25;;;;;;;8.18;58.28;97743.16;4991762;28;20046;-61
2022/04/08 02:45:00;;;;;;;18.77;4.20;;;;;;;8.21;58.66;97747.97;4994539;28;20173;-61
2022/04/08 02:47:29;;;;;;;11.90;4.68;;;;;;;8.21;57.92;97751.53;4992073;28;20054;-61
2022/04/08 02:49:56;;;;;;;10.95;4.55;;;;;;;8.21;57.83;97743.22;4994212;28;20054;-62
2022/04/08 02:52:23;;;;;;;9.48;4.00;;;;;;;8.21;58.00;97747.97;4992132;28;20549;-62
2022/04/08 02:54:50;;;;;;;9.48;4.32;;;;;;;8.21;57.32;97751.53;4977284;28;20201;-60
2022/04/08 02:57:17;;;;;;;9.30;4.25;;;;;;;8.20;57.63;97758.22;4994934;28;20084;-63
2022/04/08 02:59:43;;;;;;;8.60;3.55;;;;;;;8.25;57.60;97759.94;4993063;28;20168;-62
2022/04/08 03:02:10;;;;;;;7.85;4.00;;;;;;;8.29;57.29;97755.31;4994196;28;20412;-61
2022/04/08 03:04:37;;;;;;;6.18;4.32;;;;;;;8.32;57.10;97752.59;4991517;28;20403;-61
2022/04/08 03:07:04;;;;;;;9.15;4.22;;;;;;;8.30;56.78;97752.19;4993914;28;20142;-61
2022/04/08 03:09:31;;;;;;;15.73;4.75;;;;;;;8.30;56.71;97763.25;4991856;28;20056;-62
2022/04/08 03:11:58;;;;;;;7.25;4.00;;;;;;;8.32;56.97;97751.81;4993581;28;20366;-61
2022/04/08 03:14:25;;;;;;;9.35;3.67;;;;;;;8.35;56.28;97756.63;4991817;28;20137;-60
2022/04/08 03:16:52;;;;;;;7.90;3.85;;;;;;;8.37;56.72;97768.94;4993545;28;20042;-62
2022/04/08 03:19:19;;;;;;;6.82;3.72;;;;;;;8.38;56.46;97758.69;4990537;28;20134;-61
2022/04/08 03:21:46;;;;;;;8.75;4.13;;;;;;;8.40;55.96;97751.59;4994101;28;20088;-62
2022/04/08 03:24:14;;;;;;;11.18;3.40;;;;;;;8.44;56.04;97769.09;4989393;28;20050;-61
2022/04/08 03:26:42;;;;;;;7.40;3.75;;;;;;;8.48;56.10;97774.72;4993461;28;20054;-61
2022/04/08 03:29:10;;;;;;;6.80;4.10;;;;;;;8.49;55.74;97765.25;4991701;28;20190;-61
2022/04/08 03:31:37;;;;;;;7.15;3.53;;;;;;;8.50;55.65;97761.34;4993404;28;20136;-62
2022/04/08 03:34:04;;;;;;;7.30;3.50;;;;;;;8.52;55.52;97758.97;4992506;28;20052;-62
2022/04/08 03:36:31;;;;;;;7.20;4.05;;;;;;;8.53;55.88;97755.84;5008751;28;20056;-62
2022/04/08 03:38:59;;;;;;;5.43;3.40;;;;;;;8.57;55.61;97748.44;4992268;28;20053;-61
2022/04/08 03:41:25;;;;;;;7.63;4.00;;;;;;;8.60;54.98;97755.22;4992787;28;20446;-61
2022/04/08 03:43:52;;;;;;;9.93;4.38;;;;;;;8.65;54.88;97752.16;4993279;28;20084;-61
2022/04/08 03:46:19;;;;;;;9.32;4.05;;;;;;;8.70;54.87;97760.97;4990657;28;20054;-62
2022/04/08 03:48:46;;;;;;;8.07;3.67;;;;;;;8.73;55.25;97764.97;4993217;28;20062;-61
2022/04/08 03:51:13;;;;;;;16.20;4.70;;;;;;;8.79;54.24;97767.13;4989506;28;20157;-60
2022/04/08 03:53:40;;;;;;;6.63;3.72;;;;;;;8.83;54.14;97776.28;4992785;28;20592;-62
2022/04/08 03:56:07;;;;;;;5.47;3.63;;;;;;;8.84;54.29;97764.06;4990579;28;20050;-67
2022/04/08 03:58:34;;;;;;;7.25;3.67;;;;;;;8.89;54.23;97772.06;4992252;28;20058;-68
2022/04/08 04:01:01;;;;;;;8.32;3.63;;;;;;;8.93;54.06;97748.00;4990956;28;20413;-68
2022/04/08 04:03:28;;;;;;;10.60;3.80;;;;;;;8.99;53.86;97768.72;4992781;28;20064;-67
2022/04/08 04:05:55;;;;;;;6.22;3.42;;;;;;;9.04;53.22;97776.75;4990679;28;20056;-66
2022/04/08 04:08:22;;;;;;;7.80;3.78;;;;;;;9.10;53.75;97764.22;4991131;28;20104;-67
2022/04/08 04:10:49;;;;;;;7.65;4.45;;;;;;;9.19;53.17;97773.09;4991202;28;20089;-67
2022/04/08 04:13:16;;;;;;;7.85;3.30;;;;;;;9.29;52.69;97771.69;4991735;28;20050;-67
2022/04/08 04:15:43;;;;;;;5.60;3.33;;;;;;;9.35;52.56;97780.53;4992880;28;20417;-67
2022/04/08 04:18:10;;;;;;;6.95;3.53;;;;;;;9.30;52.76;97782.41;4976079;28;20042;-67
2022/04/08 04:20:37;;;;;;;7.90;3.72;;;;;;;9.35;52.05;97786.09;4991192;28;20416;-67
2022/04/08 04:23:04;;;;;;;16.30;4.30;;;;;;;9.37;51.68;97772.63;4990254;28;20058;-67
2022/04/08 04:25:31;;;;;;;7.97;3.70;;;;;;;9.35;52.38;97775.78;4992436;28;20069;-67
2022/04/08 04:27:58;;;;;;;8.63;3.85;;;;;;;9.34;52.03;97779.72;4990218;28;20425;-68
2022/04/08 04:30:27;;;;;;;6.43;3.17;;;;;;;9.26;51.72;97778.78;4992043;28;20046;-67
2022/04/08 04:32:56;;;;;;;6.30;3.63;;;;;;;9.33;52.03;97772.56;4989294;28;20114;-67
2022/04/08 04:35:23;;;;;;;6.60;3.25;;;;;;;9.40;52.19;97788.53;4992221;28;20046;-68
2022/04/08 04:37:50;;;;;;;8.43;3.88;;;;;;;9.40;51.54;97777.44;4989721;28;20132;-67
2022/04/08 04:40:17;;;;;;;7.80;3.20;;;;;;;9.44;51.69;97787.44;4992100;28;20125;-67
2022/04/08 04:42:44;;;;;;;12.55;3.70;;;;;;;9.46;51.71;97785.09;4989987;28;20389;-68
2022/04/08 04:45:13;;;;;;;8.95;3.60;;;;;;;9.45;51.18;97779.94;4993793;28;20072;-66
2022/04/08 04:47:40;;;;;;;7.00;3.67;;;;;;;9.45;51.82;97775.19;4989563;28;20046;-68
2022/04/08 04:50:07;;;;;;;7.43;3.78;;;;;;;9.48;50.90;97790.28;4991383;28;20078;-68
2022/04/08 04:52:34;;;;;;;8.68;3.67;;;;;;;9.51;51.40;97775.69;4991729;28;20054;-68
2022/04/08 04:55:02;;;;;;;6.80;3.53;;;;;;;9.55;50.65;97785.66;4991213;28;20094;-67
2022/04/08 04:57:29;;;;;;;11.77;4.32;;;;;;;9.66;50.15;97760.88;4991784;28;20501;-68
2022/04/08 04:59:56;;;;;;;5.50;3.63;;;;;;;9.71;49.96;97778.03;4989713;28;20133;-67
2022/04/08 05:02:23;;;;;;;9.35;3.85;;;;;;;9.78;50.61;97778.16;4983793;28;20082;-67
2022/04/08 05:04:50;;;;;;;6.55;3.40;;;;;;;9.80;50.07;97769.47;4991058;28;20043;-67
2022/04/08 05:07:17;;;;;;;6.80;3.75;;;;;;;9.84;49.89;97767.53;4991281;28;20050;-67
2022/04/08 05:09:44;;;;;;;5.38;3.05;;;;;;;9.91;49.95;97776.78;4989473;28;20590;-67
2022/04/08 05:12:11;;;;;;;6.93;3.28;;;;;;;10.02;49.10;97783.34;4991282;28;20150;-67
2022/04/08 05:14:38;;;;;;;5.68;3.63;;;;;;;10.13;48.91;97778.00;4988915;28;20125;-67
2022/04/08 05:17:05;;;;;;;8.00;3.90;;;;;;;10.29;48.62;97773.88;4991066;28;20144;-67
2022/04/08 05:19:32;;;;;;;8.20;3.42;;;;;;;10.51;48.56;97780.56;5004868;28;20449;-67
2022/04/08 05:21:59;;;;;;;7.15;3.90;;;;;;;10.73;47.13;97763.81;4989464;28;20046;-67
2022/04/08 05:24:26;;;;;;;12.55;6.22;;;;;;;10.96;47.00;97772.84;4990723;28;20145;-67
2022/04/08 05:26:53;;;;;;;5.78;3.42;;;;;;;11.12;46.82;97764.31;5007748;28;20061;-67
2022/04/08 05:29:20;;;;;;;8.70;3.30;;;;;;;11.31;46.18;97761.34;4991326;28;20472;-66
2022/04/08 05:31:47;;;;;;;5.57;3.28;;;;;;;11.53;45.63;97771.53;4990659;28;20062;-69
2022/04/08 05:34:15;;;;;;;9.18;4.13;;;;;;;11.92;44.71;97763.59;4991238;28;20093;-69
2022/04/08 05:36:42;;;;;;;6.68;3.60;;;;;;;12.96;42.74;97757.16;4971228;28;20105;-68
2022/04/08 05:39:09;;;;;;;9.48;3.40;;;;;;;13.74;41.49;97758.25;4983605;28;20130;-69
2022/04/08 05:41:36;;;;;;;7.25;3.53;;;;;;;13.92;40.95;97762.66;4990153;28;20059;-69
2022/04/08 05:44:04;;;;;;;7.40;3.53;;;;;;;13.89;40.55;97757.06;4989333;28;20105;-68
2022/04/08 05:46:30;;;;;;;13.63;3.15;;;;;;;13.81;41.01;97750.69;4987059;28;20080;-68
2022/04/08 05:49:03;;;;;;;7.53;3.63;;;;;;;14.32;40.04;97755.91;4990972;28;20482;-69
2022/04/08 05:51:30;;;;;;;7.28;3.55;;;;;;;14.97;38.68;97735.78;4988006;28;20059;-69
2022/04/08 05:54:18;;;;;;;6.68;4.22;;;;;;;15.55;37.13;97761.19;4990010;28;20061;-69
2022/04/08 05:56:45;;;;;;;10.35;3.85;;;;;;;15.31;37.45;97750.88;4987826;28;20058;-69
2022/04/08 05:59:12;;;;;;;5.75;3.40;;;;;;;15.27;37.54;97753.69;4982678;28;20046;-68
2022/04/08 06:01:39;;;;;;;6.70;3.90;;;;;;;15.28;37.49;97746.09;4988870;28;20132;-68
2022/04/08 06:04:06;;;;;;;6.35;3.70;;;;;;;15.22;36.96;97745.69;4990486;28;20081;-68
2022/04/08 06:06:33;;;;;;;12.88;4.00;;;;;;;16.31;35.93;97748.66;4987975;28;20078;-68
2022/04/08 06:09:00;;;;;;;6.72;3.63;;;;;;;17.92;33.29;97740.38;4991574;28;20049;-68
2022/04/08 06:11:27;;;;;;;7.78;3.47;;;;;;;19.26;31.32;97755.75;4988697;28;20569;-69
2022/04/08 06:13:55;;;;;;;7.32;3.80;;;;;;;20.25;29.42;97737.47;4989650;28;20050;-67
2022/04/08 06:16:25;;;;;;;9.38;3.92;;;;;;;19.77;30.05;97741.00;4988046;28;20058;-68
2022/04/08 06:18:52;;;;;;;5.65;3.90;;;;;;;19.96;30.08;97761.94;4990379;28;20066;-68
2022/04/08 06:21:19;;;;;;;11.38;3.97;;;;;;;20.28;29.05;97758.41;4988772;28;20133;-69
2022/04/08 06:23:46;;;;;;;9.18;3.65;;;;;;;19.54;29.29;97763.66;4989399;28;20129;-68
2022/04/08 06:26:15;;;;;;;11.93;4.82;;;;;;;18.15;30.84;97757.31;4989115;28;20141;-69
2022/04/08 06:28:42;;;;;;;9.73;4.53;;;;;;;17.13;32.52;97762.69;4989946;28;20460;-68
2022/04/08 06:31:10;;;;;;;9.80;4.20;;;;;;;16.74;33.19;97760.31;4990429;28;20058;-68
2022/04/08 06:33:43;;;;;;;7.65;4.28;;;;;;;16.49;33.34;97761.75;4989679;28;20386;-68
2022/04/08 06:36:10;;;;;;;6.10;3.90;;;;;;;16.82;32.82;97766.66;4990221;28;20133;-71
2022/04/08 06:38:37;;;;;;;12.57;4.40;;;;;;;17.25;31.87;97773.41;4990190;28;20060;-68
2022/04/08 06:41:04;;;;;;;7.40;4.60;;;;;;;17.63;31.42;97767.31;4990533;28;20096;-68
2022/04/08 06:43:31;;;;;;;12.00;5.43;;;;;;;17.61;31.35;97758.50;4986745;28;20050;-68
2022/04/08 06:45:58;;;;;;;6.90;3.85;;;;;;;17.07;32.25;97775.59;4982295;28;20065;-68
2022/04/08 06:48:25;;;;;;;9.02;3.97;;;;;;;16.31;33.00;97757.06;4987462;28;20042;-69
2022/04/08 06:50:52;;;;;;;7.28;4.05;;;;;;;15.80;34.35;97773.88;4988166;28;20131;-68
2022/04/08 06:53:18;;;;;;;7.28;3.95;;;;;;;15.19;34.95;97763.31;4988333;28;20054;-68
2022/04/08 06:55:45;;;;;;;14.88;4.80;;;;;;;14.98;35.06;97763.38;4991467;28;20062;-65
2022/04/08 06:58:12;;;;;;;11.60;4.20;;;;;;;14.95;35.12;97767.00;4992946;28;20556;-65
2022/04/08 07:00:39;;;;;;;14.18;4.72;;;;;;;14.96;35.40;97760.22;4993443;28;20570;-65
2022/04/08 07:03:07;;;;;;;9.98;4.82;;;;;;;14.75;35.20;97779.88;4991162;28;20432;-65
2022/04/08 07:05:34;;;;;;;11.60;4.68;;;;;;;14.54;35.80;97777.09;4990051;28;20077;-69
2022/04/08 07:08:00;;;;;;;16.15;5.00;;;;;;;14.48;35.73;97770.31;4991741;28;20424;-68
2022/04/08 07:10:28;;;;;;;7.28;4.40;;;;;;;14.58;35.56;97781.50;4993041;28;20068;-70
2022/04/08 07:12:54;;;;;;;10.52;5.63;;;;;;;14.50;35.80;97776.28;4993948;28;20124;-68
2022/04/08 07:15:21;;;;;;;8.70;4.45;;;;;;;14.46;36.29;97783.88;4992526;28;20046;-69
2022/04/08 07:17:48;;;;;;;7.97;4.57;;;;;;;14.40;36.27;97768.69;4992456;28;20050;-68
2022/04/08 07:20:17;;;;;;;10.00;4.45;;;;;;;14.34;36.50;97787.91;4990838;28;20101;-70
2022/04/08 07:22:46;;;;;;;10.27;4.47;;;;;;;14.33;36.08;97782.72;4988488;28;20054;-70
2022/04/08 07:25:13;;;;;;;9.23;5.00;;;;;;;14.16;36.39;97780.66;4992313;28;20050;-69
2022/04/08 07:27:49;;;;;;;10.90;4.65;;;;;;;14.22;36.70;97773.47;4992417;28;20052;-70
2022/04/08 07:30:18;;;;;;;180.10;69.95;;;;;;;14.42;36.29;97783.09;4991219;28;20133;-70
2022/04/08 07:32:46;;;;;;;20.63;9.05;;;;;;;14.81;35.76;97778.25;4993258;28;20074;-69
2022/04/08 07:35:13;;;;;;;12.95;5.18;;;;;;;15.13;34.96;97783.75;4991187;28;20478;-69
2022/04/08 07:37:40;;;;;;;10.13;4.78;;;;;;;15.34;34.54;97818.09;4992808;28;20070;-69
2022/04/08 07:40:11;;;;;;;9.43;5.05;;;;;;;15.31;34.33;97774.06;4993006;28;20141;-69
2022/04/08 07:42:39;;;;;;;11.20;4.63;;;;;;;15.23;34.72;97769.72;4991725;28;20046;-69
2022/04/08 07:45:07;;;;;;;29.17;8.10;;;;;;;15.12;35.05;97787.75;4990481;28;20145;-68
2022/04/08 07:47:35;;;;;;;12.63;6.25;;;;;;;15.05;35.04;97777.38;4991098;28;20561;-69
2022/04/08 07:50:09;;;;;;;9.15;4.97;;;;;;;15.12;34.92;97766.16;4990212;28;20160;-69
2022/04/08 07:52:37;;;;;;;9.07;4.72;;;;;;;15.07;34.45;97768.59;4991864;28;20093;-70
2022/04/08 07:55:06;;;;;;;11.18;6.80;;;;;;;14.75;35.65;97784.66;4992331;28;20117;-69
2022/04/08 07:57:33;;;;;;;12.57;5.22;;;;;;;14.53;35.77;97770.69;4992035;28;20088;-69
2022/04/08 08:00:00;;;;;;;8.90;4.30;;;;;;;14.56;35.92;97766.28;4990140;28;20061;-69
2022/04/08 08:02:29;;;;;;;10.43;5.13;;;;;;;14.75;35.48;97779.88;4992376;28;20061;-70
2022/04/08 08:04:56;;;;;;;11.98;5.22;;;;;;;14.92;35.70;97767.03;4989837;28;20505;-68
2022/04/08 08:07:23;;;;;;;11.18;5.05;;;;;;;15.04;35.77;97775.78;4992722;28;20050;-68
2022/04/08 08:09:50;;;;;;;12.98;7.35;;;;;;;15.13;35.51;97773.34;4990218;28;20129;-67
2022/04/08 08:12:22;;;;;;;14.40;6.43;;;;;;;14.90;35.63;97784.22;4989191;28;20058;-69
2022/04/08 08:14:49;;;;;;;11.98;5.57;;;;;;;14.79;35.48;97774.25;4991243;28;20061;-71
2022/04/08 08:17:16;;;;;;;13.35;5.97;;;;;;;14.80;35.43;97773.84;4992639;28;20050;-69
2022/04/08 08:19:44;;;;;;;15.70;4.90;;;;;;;15.19;35.19;97773.75;4991846;28;20077;-69
2022/04/08 08:22:11;;;;;;;16.83;5.70;;;;;;;15.44;34.86;97758.44;4993049;28;20141;-69
2022/04/08 08:24:37;;;;;;;11.07;4.82;;;;;;;15.53;34.74;97755.19;4987122;28;20060;-68
2022/04/08 08:27:05;;;;;;;11.50;5.10;;;;;;;15.34;35.03;97767.66;4989623;28;20069;-69
2022/04/08 08:29:32;;;;;;;12.50;4.53;;;;;;;15.13;34.82;97750.94;4991726;28;20073;-69
2022/04/08 08:31:59;;;;;;;10.18;4.88;;;;;;;15.18;35.25;97753.31;4989982;28;20072;-71
2022/04/08 08:34:26;;;;;;;11.63;5.43;;;;;;;15.24;34.88;97757.31;4990735;28;20054;-69
2022/04/08 08:36:59;;;;;;;8.10;5.40;;;;;;;15.28;34.86;97762.91;4989768;28;20078;-70
2022/04/08 08:39:27;;;;;;;12.25;5.63;;;;;;;15.20;35.11;97753.72;4992089;28;20058;-69
2022/04/08 08:41:55;;;;;;;12.57;5.18;;;;;;;15.32;34.90;97747.66;4989723;28;20046;-69
2022/04/08 08:44:22;;;;;;;15.13;5.20;;;;;;;15.49;34.29;97758.03;4991036;28;20181;-69
2022/04/08 08:46:52;;;;;;;17.35;5.72;;;;;;;15.39;33.65;97753.25;4991091;28;20046;-70
2022/04/08 08:49:20;;;;;;;11.48;5.43;;;;;;;15.35;33.73;97746.84;4991872;28;20138;-69
2022/04/08 08:52:06;;;;;;;10.52;5.30;;;;;;;15.43;33.60;97747.66;4988988;28;20054;-69
2022/04/08 08:54:35;;;;;;;11.85;5.80;;;;;;;15.55;33.34;97731.19;4991340;28;20065;-70
2022/04/08 08:57:02;;;;;;;9.50;5.00;;;;;;;15.89;33.14;97734.13;4989496;28;20039;-69
2022/04/08 08:59:29;;;;;;;9.70;5.78;;;;;;;16.25;32.27;97733.47;4991216;28;20057;-69
2022/04/08 09:02:01;;;;;;;14.10;7.45;;;;;;;16.59;31.63;97732.78;4987682;28;20553;-69
2022/04/08 09:04:29;;;;;;;12.45;6.57;;;;;;;16.89;30.89;97750.53;4991470;28;20511;-69
2022/04/08 09:06:57;;;;;;;10.73;6.20;;;;;;;17.17;30.40;97749.41;4989159;28;20387;-69
2022/04/08 09:09:30;;;;;;;11.13;6.30;;;;;;;17.42;30.04;97730.22;4991869;28;20090;-69
2022/04/08 09:12:17;;;;;;;13.30;7.20;;;;;;;17.36;30.03;97701.00;4988296;28;20050;-69
2022/04/08 09:14:52;;;;;;;12.60;6.63;;;;;;;17.02;30.31;97719.91;4991276;28;20133;-69
2022/04/08 09:17:21;;;;;;;12.68;7.38;;;;;;;16.68;31.06;97716.25;4982137;28;20049;-69
2022/04/08 09:19:49;;;;;;;19.17;6.32;;;;;;;16.63;31.00;97716.69;4990104;28;20142;-69
2022/04/08 09:22:18;;;;;;;14.27;6.22;;;;;;;16.54;31.14;97707.97;4988974;28;20042;-69
2022/04/08 09:24:46;;;;;;;12.73;6.13;;;;;;;16.59;31.21;97701.91;4989837;28;20060;-69
2022/04/08 09:27:13;;;;;;;21.10;6.47;;;;;;;16.55;30.93;97727.19;4990477;28;20042;-69
2022/04/08 09:29:44;;;;;;;11.23;6.70;;;;;;;16.35;31.17;97709.34;4983209;28;20088;-70
2022/04/08 09:32:31;;;;;;;14.32;6.43;;;;;;;16.34;31.26;97711.34;4990008;28;20078;-69
2022/04/08 09:34:58;;;;;;;14.05;6.80;;;;;;;16.38;31.20;97706.47;4990428;28;20054;-68
2022/04/08 09:37:25;;;;;;;13.70;8.40;;;;;;;16.30;31.20;97713.38;4988343;28;20394;-70
2022/04/08 09:40:00;;;;;;;20.95;9.65;;;;;;;16.30;31.59;97707.78;4987814;28;20093;-69
2022/04/08 09:42:47;;;;;;;12.77;6.60;;;;;;;16.16;31.26;97707.88;4989958;28;20113;-68
2022/04/08 09:45:14;;;;;;;10.02;6.03;;;;;;;16.12;31.34;97706.31;4987716;28;20576;-68
2022/04/08 09:47:41;;;;;;;12.23;6.60;;;;;;;16.01;31.71;97686.78;4991213;28;20473;-70
2022/04/08 09:50:10;;;;;;;11.25;6.15;;;;;;;15.77;31.29;97695.38;4991148;28;20088;-69
2022/04/08 09:52:41;;;;;;;13.73;6.30;;;;;;;15.67;32.11;97711.09;4990453;28;20050;-69
2022/04/08 09:55:09;;;;;;;12.73;7.03;;;;;;;15.66;32.01;97711.50;4987456;28;20077;-69
2022/04/08 09:57:41;;;;;;;12.63;5.95;;;;;;;15.70;31.77;97701.84;4988094;28;20043;-69
2022/04/08 10:00:09;;;;;;;18.33;6.18;;;;;;;15.68;32.32;97690.25;4985949;28;20050;-69
2022/04/08 10:02:40;;;;;;;11.32;5.63;;;;;;;15.65;32.32;97721.09;4983363;28;20046;-70
2022/04/08 10:05:09;;;;;;;9.15;5.75;;;;;;;15.37;32.46;97704.41;4988235;28;20400;-65
2022/04/08 10:07:38;;;;;;;9.20;5.28;;;;;;;15.27;33.16;97694.84;4990657;28;20484;-64
2022/04/08 10:10:21;;;;;;;25.25;6.25;;;;;;;15.32;32.96;97702.03;4988956;28;20038;-68
2022/04/08 10:13:00;;;;;;;11.07;5.30;;;;;;;15.34;33.13;97708.81;4987118;28;20171;-65
2022/04/08 10:15:43;;;;;;;9.07;4.03;;;;;;;15.42;32.78;97702.00;4985729;28;20078;-67
2022/04/08 10:18:10;;;;;;;11.68;4.68;;;;;;;15.54;32.58;97693.13;4989836;28;20416;-63
2022/04/08 10:20:38;;;;;;;9.95;4.85;;;;;;;15.72;32.22;97713.44;4989204;28;20409;-63
2022/04/08 10:23:10;;;;;;;12.40;5.00;;;;;;;15.59;32.56;97692.69;4989218;28;20050;-64
2022/04/08 10:25:41;;;;;;;10.75;4.90;;;;;;;15.37;33.18;97696.81;4987868;28;20112;-65
2022/04/08 10:28:10;;;;;;;7.32;4.00;;;;;;;15.40;33.54;97684.81;4990082;28;20125;-64
2022/04/08 10:30:45;;;;;;;10.82;5.18;;;;;;;15.44;33.02;97680.00;4988870;28;20161;-64
2022/04/08 10:33:24;;;;;;;9.35;4.85;;;;;;;15.51;33.06;97670.75;4989582;28;20046;-64
2022/04/08 10:35:53;;;;;;;7.57;4.28;;;;;;;15.49;33.53;97671.16;4991860;28;20057;-64
2022/04/08 10:38:20;;;;;;;8.53;4.00;;;;;;;15.53;33.33;97673.91;4992487;28;20078;-64
2022/04/08 10:40:55;;;;;;;14.10;5.53;;;;;;;15.59;33.40;97673.09;4991306;28;20788;-64
2022/04/08 10:43:23;;;;;;;7.78;4.80;;;;;;;15.49;33.76;97679.56;4992612;28;20070;-66
2022/04/08 10:46:03;;;;;;;9.15;4.32;;;;;;;15.42;33.95;97676.78;4988118;28;20042;-64
2022/04/08 10:48:34;;;;;;;11.07;4.75;;;;;;;15.41;34.11;97682.81;4991919;28;20046;-67
2022/04/08 10:51:13;;;;;;;7.20;4.57;;;;;;;15.52;34.27;97656.31;4992183;28;20133;-69
2022/04/08 10:53:43;;;;;;;10.55;4.70;;;;;;;15.59;34.35;97670.28;4987644;28;20097;-62
2022/04/08 10:56:13;;;;;;;8.50;4.63;;;;;;;15.46;34.47;97677.59;4989700;28;20058;-64
2022/04/08 10:58:44;;;;;;;10.40;4.65;;;;;;;15.37;34.49;97682.00;4971514;28;20088;-63
2022/04/08 11:01:22;;;;;;;13.70;5.43;;;;;;;15.25;34.60;97672.03;4992335;28;20093;-63
2022/04/08 11:03:59;;;;;;;13.77;5.72;;;;;;;15.12;35.07;97659.72;4988730;28;20078;-67
2022/04/08 11:06:30;;;;;;;8.63;5.13;;;;;;;15.03;35.18;97656.56;4992448;28;20086;-64
2022/04/08 11:09:12;;;;;;;10.35;4.80;;;;;;;14.99;35.07;97650.19;4990841;28;20059;-64
2022/04/08 11:11:43;;;;;;;10.23;5.15;;;;;;;15.00;35.75;97668.59;4992001;28;20088;-61
2022/04/08 11:14:11;;;;;;;18.58;8.30;;;;;;;14.91;35.67;97654.22;4989958;28;20052;-62
2022/04/08 11:16:39;;;;;;;9.88;5.65;;;;;;;14.80;36.34;97664.66;4993576;28;20054;-63
2022/04/08 11:19:08;;;;;;;12.48;5.90;;;;;;;14.67;37.06;97657.91;4990607;28;20042;-61
2022/04/08 11:21:40;;;;;;;12.48;5.55;;;;;;;14.63;36.94;97660.72;4993242;28;20548;-63
2022/04/08 11:24:09;;;;;;;9.90;5.72;;;;;;;14.62;37.57;97661.13;4991081;28;20424;-62
2022/04/08 11:26:50;;;;;;;12.32;5.53;;;;;;;14.47;37.82;97646.41;4994618;28;20129;-64
2022/04/08 11:29:23;;;;;;;15.43;6.38;;;;;;;14.31;38.33;97660.03;4992573;28;20081;-63
2022/04/08 11:32:09;;;;;;;13.15;6.55;;;;;;;14.17;39.28;97648.84;4992848;28;20137;-64
2022/04/08 11:34:48;;;;;;;15.40;6.53;;;;;;;14.07;39.60;97629.28;4992327;28;20069;-64
2022/04/08 11:37:26;;;;;;;11.93;6.75;;;;;;;14.17;39.76;97636.84;4989381;28;20042;-64
2022/04/08 11:39:57;;;;;;;12.85;6.30;;;;;;;14.22;39.48;97650.41;4992408;28;20077;-63